createdAt,value
2023-02-22T00:00:43.243Z,1.20
2023-02-22T00:03:18.302Z,1.20
2023-02-22T00:05:47.452Z,1.10
2023-02-22T00:08:16.528Z,1.00
2023-02-22T00:10:44.873Z,1.20
2023-02-22T00:13:13.992Z,1.20
2023-02-22T00:15:41.533Z,1.20
2023-02-22T00:18:11.991Z,1.00
2023-02-22T00:20:39.700Z,0.90
2023-02-22T00:23:12.947Z,0.90
2023-02-22T00:25:39.947Z,0.90
2023-02-22T00:28:07.431Z,0.90
2023-02-22T00:30:35.166Z,0.90
2023-02-22T00:33:02.777Z,0.80
2023-02-22T00:35:30.993Z,0.90
2023-02-22T00:38:02.239Z,1.10
2023-02-22T00:40:34.551Z,1.40
2023-02-22T00:43:05.003Z,1.50
2023-02-22T00:45:33.666Z,1.50
2023-02-22T00:48:01.163Z,1.50
2023-02-22T00:50:31.061Z,1.60
2023-02-22T00:52:59.863Z,1.60
2023-02-22T00:55:30.895Z,1.40
2023-02-22T00:57:57.790Z,1.30
2023-02-22T01:00:32.644Z,1.30
2023-02-22T01:03:00.120Z,1.20
2023-02-22T01:05:29.946Z,1.10
2023-02-22T01:07:58.731Z,1.00
2023-02-22T01:10:29.556Z,1.00
2023-02-22T01:12:57.292Z,1.10
2023-02-22T01:15:27.315Z,1.00
2023-02-22T01:17:55.169Z,1.00
2023-02-22T01:20:23.057Z,0.90
2023-02-22T01:22:53.807Z,0.90
2023-02-22T01:25:23.718Z,1.00
2023-02-22T01:27:51.706Z,0.90
2023-02-22T01:30:23.376Z,0.80
2023-02-22T01:32:51.596Z,0.60
2023-02-22T01:35:21.013Z,0.50
2023-02-22T01:37:47.819Z,0.40
2023-02-22T01:40:22.161Z,0.50
2023-02-22T01:42:53.668Z,0.70
2023-02-22T01:45:47.135Z,0.80
2023-02-22T01:48:14.308Z,0.80
2023-02-22T01:50:54.279Z,0.80
2023-02-22T01:53:26.249Z,0.80
2023-02-22T01:55:55.466Z,0.90
2023-02-22T01:58:24.410Z,0.90
2023-02-22T02:00:52.044Z,0.80
2023-02-22T02:03:27.674Z,0.60
2023-02-22T02:05:58.667Z,0.30
2023-02-22T02:08:47.475Z,0.10
2023-02-22T02:11:14.575Z,0.00
2023-02-22T02:13:41.760Z,-0.10
2023-02-22T02:16:09.084Z,0.00
2023-02-22T02:18:35.922Z,0.00
2023-02-22T02:21:40.519Z,-0.10
2023-02-22T02:24:51.631Z,-0.20
2023-02-22T02:27:23.019Z,0.10
2023-02-22T02:29:58.582Z,0.00
2023-02-22T02:32:47.252Z,0.00
2023-02-22T02:35:34.466Z,-0.10
2023-02-22T02:38:16.085Z,-0.10
2023-02-22T02:40:52.079Z,-0.10
2023-02-22T02:43:32.940Z,-0.20
2023-02-22T02:46:06.125Z,-0.30
2023-02-22T02:48:35.556Z,-0.40
2023-02-22T02:51:06.783Z,-0.20
2023-02-22T02:53:37.465Z,-0.10
2023-02-22T02:56:05.564Z,-0.20
2023-02-22T02:58:32.743Z,-0.30
2023-02-22T03:01:04.476Z,-0.40
2023-02-22T03:04:03.099Z,-0.50
2023-02-22T03:06:55.480Z,-0.60
2023-02-22T03:09:48.607Z,-0.50
2023-02-22T03:12:35.747Z,-0.20
2023-02-22T03:15:12.502Z,-0.10
2023-02-22T03:18:08.264Z,0.00
2023-02-22T03:20:53.462Z,-0.10
2023-02-22T03:23:42.700Z,0.00
2023-02-22T03:26:41.010Z,0.20
2023-02-22T03:29:11.632Z,0.10
2023-02-22T03:31:44.970Z,0.30
2023-02-22T03:34:17.146Z,0.30
2023-02-22T03:36:50.028Z,0.30
2023-02-22T03:39:20.309Z,0.20
2023-02-22T03:41:51.598Z,0.10
2023-02-22T03:44:27.687Z,-0.10
2023-02-22T03:46:57.663Z,-0.30
2023-02-22T03:49:36.404Z,-0.40
2023-02-22T03:52:08.038Z,-0.40
2023-02-22T03:54:36.506Z,-0.50
2023-02-22T03:57:20.032Z,-0.50
2023-02-22T03:59:53.674Z,-0.30
2023-02-22T04:02:20.817Z,-0.30
2023-02-22T04:04:48.696Z,-0.10
2023-02-22T04:07:17.075Z,0.00
2023-02-22T04:09:43.942Z,0.10
2023-02-22T04:12:11.461Z,0.00
2023-02-22T04:14:52.750Z,0.00
2023-02-22T04:17:19.701Z,-0.10
2023-02-22T04:19:46.755Z,-0.20
2023-02-22T04:22:14.402Z,-0.30
2023-02-22T04:24:41.301Z,-0.40
2023-02-22T04:27:08.177Z,-0.40
2023-02-22T04:29:37.627Z,-0.30
2023-02-22T04:32:07.111Z,-0.10
2023-02-22T04:34:34.326Z,-0.10
2023-02-22T04:37:01.762Z,0.00
2023-02-22T04:39:28.658Z,0.00
2023-02-22T04:41:56.112Z,0.00
2023-02-22T04:44:23.186Z,-0.20
2023-02-22T04:46:50.121Z,-0.30
2023-02-22T04:49:17.359Z,-0.20
2023-02-22T04:51:45.502Z,-0.10
2023-02-22T04:54:13.759Z,0.00
2023-02-22T04:56:46.694Z,0.00
2023-02-22T04:59:13.969Z,0.00
2023-02-22T05:01:44.624Z,0.10
2023-02-22T05:04:11.621Z,-0.10
2023-02-22T05:06:38.469Z,-0.30
2023-02-22T05:09:05.714Z,-0.60
2023-02-22T05:11:32.767Z,-0.70
2023-02-22T05:14:00.328Z,-0.80
2023-02-22T05:16:27.265Z,-0.90
2023-02-22T05:18:54.635Z,-1.00
2023-02-22T05:21:21.706Z,-1.10
2023-02-22T05:23:48.545Z,-1.20
2023-02-22T05:26:15.447Z,-1.20
2023-02-22T05:28:42.305Z,-1.10
2023-02-22T05:31:09.311Z,-1.10
2023-02-22T05:33:36.356Z,-1.10
2023-02-22T05:36:03.178Z,-1.00
2023-02-22T05:38:30.439Z,-1.00
2023-02-22T05:40:57.298Z,-1.00
2023-02-22T05:43:24.740Z,-1.00
2023-02-22T05:45:51.755Z,-1.00
2023-02-22T05:48:18.587Z,-1.00
2023-02-22T05:50:46.093Z,-1.10
2023-02-22T05:53:13.338Z,-1.20
2023-02-22T05:55:40.374Z,-1.20
2023-02-22T05:58:07.216Z,-1.10
2023-02-22T06:00:34.236Z,-0.90
2023-02-22T06:03:06.746Z,-0.70
2023-02-22T06:05:34.467Z,-0.60
2023-02-22T06:08:03.381Z,-0.50
2023-02-22T06:10:30.381Z,-0.50
2023-02-22T06:12:58.611Z,-0.60
2023-02-22T06:15:27.283Z,-0.60
2023-02-22T06:17:55.911Z,-0.80
2023-02-22T06:20:24.686Z,-0.90
2023-02-22T06:22:53.174Z,-0.90
2023-02-22T06:25:26.256Z,-0.90
2023-02-22T06:27:53.107Z,-0.70
2023-02-22T06:30:22.585Z,-0.70
2023-02-22T06:32:50.135Z,-0.10
2023-02-22T06:35:18.198Z,0.30
2023-02-22T06:37:45.463Z,0.50
2023-02-22T06:40:13.164Z,0.80
2023-02-22T06:42:40.419Z,1.10
2023-02-22T06:45:08.086Z,1.50
2023-02-22T06:47:41.483Z,1.70
2023-02-22T06:50:18.492Z,1.50
2023-02-22T06:52:45.499Z,1.40
2023-02-22T06:55:12.288Z,1.30
2023-02-22T06:57:40.340Z,1.20
2023-02-22T07:00:07.847Z,1.20
2023-02-22T07:02:35.062Z,1.40
2023-02-22T07:05:01.948Z,1.60
2023-02-22T07:07:29.817Z,1.60
2023-02-22T07:09:56.650Z,1.70
2023-02-22T07:12:23.599Z,1.80
2023-02-22T07:14:50.444Z,1.80
2023-02-22T07:17:17.253Z,1.80
2023-02-22T07:19:44.066Z,1.90
2023-02-22T07:22:10.922Z,2.10
2023-02-22T07:24:37.800Z,2.50
2023-02-22T07:27:04.678Z,3.00
2023-02-22T07:29:32.147Z,3.30
2023-02-22T07:31:59.350Z,3.50
2023-02-22T07:34:26.294Z,4.20
2023-02-22T07:36:53.182Z,4.90
2023-02-22T07:39:20.738Z,5.60
2023-02-22T07:41:47.679Z,6.10
2023-02-22T07:44:22.723Z,6.60
2023-02-22T07:46:50.442Z,6.90
2023-02-22T07:49:18.492Z,6.90
2023-02-22T07:51:45.590Z,6.70
2023-02-22T07:54:12.575Z,6.40
2023-02-22T07:56:45.855Z,6.10
2023-02-22T07:59:12.698Z,5.90
2023-02-22T08:01:39.832Z,5.80
2023-02-22T08:04:07.299Z,5.80
2023-02-22T08:06:34.620Z,5.70
2023-02-22T08:09:01.877Z,5.80
2023-02-22T08:11:28.752Z,6.00
2023-02-22T08:13:55.567Z,6.10
2023-02-22T08:16:22.403Z,6.20
2023-02-22T08:18:49.221Z,6.40
2023-02-22T08:21:17.242Z,6.60
2023-02-22T08:23:44.224Z,6.70
2023-02-22T08:26:15.687Z,6.80
2023-02-22T08:28:43.225Z,6.90
2023-02-22T08:31:10.668Z,6.80
2023-02-22T08:33:37.627Z,6.70
2023-02-22T08:36:04.834Z,6.60
2023-02-22T08:38:34.008Z,6.70
2023-02-22T08:41:00.873Z,6.80
2023-02-22T08:43:28.673Z,6.70
2023-02-22T08:45:57.604Z,6.60
2023-02-22T08:48:24.890Z,6.60
2023-02-22T08:50:51.885Z,6.60
2023-02-22T08:53:19.103Z,6.60
2023-02-22T08:55:46.062Z,6.50
2023-02-22T08:58:13.833Z,6.80
2023-02-22T09:00:41.114Z,6.90
2023-02-22T09:03:11.956Z,7.40
2023-02-22T09:05:39.134Z,7.80
2023-02-22T09:08:06.318Z,8.30
2023-02-22T09:10:34.696Z,8.80
2023-02-22T09:13:02.519Z,9.10
2023-02-22T09:15:29.924Z,9.30
2023-02-22T09:17:57.124Z,9.30
2023-02-22T09:20:24.988Z,9.40
2023-02-22T09:22:53.070Z,9.60
2023-02-22T09:25:23.106Z,9.40
2023-02-22T09:27:51.815Z,9.50
2023-02-22T09:30:32.511Z,9.70
2023-02-22T09:33:06.082Z,10.00
2023-02-22T09:35:36.240Z,10.10
2023-02-22T09:38:06.161Z,10.30
2023-02-22T09:40:36.691Z,10.70
2023-02-22T09:43:21.472Z,11.20
2023-02-22T09:46:00.518Z,11.40
2023-02-22T09:48:27.796Z,11.30
2023-02-22T09:50:59.620Z,11.30
2023-02-22T09:53:36.162Z,11.30
2023-02-22T09:56:15.698Z,11.20
2023-02-22T09:58:54.906Z,11.20
2023-02-22T10:01:39.225Z,11.40
2023-02-22T10:04:13.402Z,12.00
2023-02-22T10:06:43.876Z,12.50
2023-02-22T10:09:11.514Z,13.40
2023-02-22T10:12:02.153Z,14.00
2023-02-22T10:14:48.627Z,14.00
2023-02-22T10:17:27.827Z,14.60
2023-02-22T10:20:15.565Z,15.20
2023-02-22T10:23:12.231Z,15.30
2023-02-22T10:25:42.306Z,15.50
2023-02-22T10:28:12.518Z,16.10
2023-02-22T10:31:05.083Z,16.10
2023-02-22T10:33:44.852Z,16.80
2023-02-22T10:36:20.270Z,17.40
2023-02-22T10:38:55.253Z,17.70
2023-02-22T10:41:31.119Z,18.00
2023-02-22T10:43:58.785Z,17.80
2023-02-22T10:46:29.400Z,18.20
2023-02-22T10:49:02.654Z,18.80
2023-02-22T10:51:30.468Z,18.60
2023-02-22T10:54:15.613Z,18.60
2023-02-22T10:56:55.643Z,18.20
2023-02-22T10:59:41.027Z,17.00
2023-02-22T11:02:23.448Z,17.20
2023-02-22T11:04:53.802Z,16.80
2023-02-22T11:07:27.440Z,16.10
2023-02-22T11:10:00.884Z,15.30
2023-02-22T11:12:32.091Z,15.80
2023-02-22T11:15:26.140Z,16.40
2023-02-22T11:17:55.655Z,17.00
2023-02-22T11:20:34.536Z,17.20
2023-02-22T11:23:04.192Z,16.90
2023-02-22T11:25:39.912Z,17.10
2023-02-22T11:28:30.820Z,16.60
2023-02-22T11:31:10.448Z,16.40
2023-02-22T11:33:38.344Z,16.70
2023-02-22T11:36:09.330Z,17.00
2023-02-22T11:38:39.050Z,17.30
2023-02-22T11:41:18.688Z,16.80
2023-02-22T11:43:48.446Z,16.80
2023-02-22T11:46:22.811Z,17.10
2023-02-22T11:49:10.223Z,16.80
2023-02-22T11:52:05.029Z,17.00
2023-02-22T11:54:46.666Z,17.10
2023-02-22T11:57:31.756Z,17.90
2023-02-22T12:00:12.244Z,18.30
2023-02-22T12:03:05.928Z,18.10
2023-02-22T12:05:42.748Z,16.80
2023-02-22T12:08:27.148Z,16.30
2023-02-22T12:11:12.590Z,17.30
2023-02-22T12:14:05.800Z,18.00
2023-02-22T12:16:39.061Z,17.60
2023-02-22T12:19:38.074Z,18.20
2023-02-22T12:22:15.133Z,18.90
2023-02-22T12:25:03.927Z,18.70
2023-02-22T12:28:09.934Z,18.20
2023-02-22T12:30:44.327Z,18.00
2023-02-22T12:33:19.132Z,17.50
2023-02-22T12:35:58.316Z,17.50
2023-02-22T12:38:44.319Z,18.10
2023-02-22T12:41:31.349Z,17.80
2023-02-22T12:44:02.305Z,17.90
2023-02-22T12:46:35.455Z,18.70
2023-02-22T12:49:27.257Z,18.90
2023-02-22T12:52:21.268Z,18.80
2023-02-22T12:54:56.262Z,18.90
2023-02-22T12:58:17.188Z,19.40
2023-02-22T13:01:00.272Z,18.20
2023-02-22T13:03:44.021Z,18.20
2023-02-22T13:06:33.296Z,18.30
2023-02-22T13:09:05.750Z,18.00
2023-02-22T13:11:54.689Z,18.10
2023-02-22T13:14:49.493Z,18.90
2023-02-22T13:17:44.881Z,19.40
2023-02-22T13:20:24.578Z,19.50
2023-02-22T13:23:12.279Z,19.30
2023-02-22T13:25:58.139Z,19.10
2023-02-22T13:28:46.562Z,18.20
2023-02-22T13:31:19.902Z,18.40
2023-02-22T13:34:03.374Z,18.90
2023-02-22T13:36:38.652Z,19.00
2023-02-22T13:39:14.808Z,19.00
2023-02-22T13:42:08.521Z,18.40
2023-02-22T13:44:47.362Z,18.30
2023-02-22T13:47:33.988Z,17.30
2023-02-22T13:50:37.753Z,17.10
2023-02-22T13:53:11.166Z,16.70
2023-02-22T13:55:41.036Z,16.60
2023-02-22T13:58:13.070Z,16.50
2023-02-22T14:00:45.744Z,16.30
2023-02-22T14:03:15.585Z,15.90
2023-02-22T14:05:42.594Z,16.40
2023-02-22T14:08:36.734Z,16.70
2023-02-22T14:11:32.599Z,16.40
2023-02-22T14:14:01.045Z,17.00
2023-02-22T14:16:29.806Z,16.80
2023-02-22T14:19:23.955Z,16.50
2023-02-22T14:22:03.475Z,16.20
2023-02-22T14:24:43.942Z,15.40
2023-02-22T14:27:11.967Z,14.70
2023-02-22T14:29:53.888Z,14.50
2023-02-22T14:32:30.749Z,14.10
2023-02-22T14:35:04.327Z,14.00
2023-02-22T14:37:39.271Z,13.80
2023-02-22T14:40:30.671Z,13.90
2023-02-22T14:43:09.594Z,13.60
2023-02-22T14:45:45.276Z,13.50
2023-02-22T14:48:25.073Z,13.60
2023-02-22T14:51:03.719Z,13.30
2023-02-22T14:53:54.004Z,13.50
2023-02-22T14:56:41.267Z,13.70
2023-02-22T14:59:13.884Z,13.20
2023-02-22T15:01:52.693Z,13.00
2023-02-22T15:04:31.062Z,12.70
2023-02-22T15:07:00.066Z,12.90
2023-02-22T15:09:34.701Z,12.90
2023-02-22T15:12:04.819Z,12.90
2023-02-22T15:14:37.813Z,13.00
2023-02-22T15:17:12.816Z,13.10
2023-02-22T15:19:41.604Z,13.10
2023-02-22T15:22:26.344Z,13.00
2023-02-22T15:25:03.612Z,12.80
2023-02-22T15:27:36.735Z,12.50
2023-02-22T15:30:27.780Z,12.50
2023-02-22T15:33:03.994Z,12.20
2023-02-22T15:35:33.519Z,12.20
2023-02-22T15:38:04.007Z,12.10
2023-02-22T15:40:33.307Z,11.80
2023-02-22T15:43:08.814Z,11.80
2023-02-22T15:45:42.928Z,11.70
2023-02-22T15:48:15.796Z,11.50
2023-02-22T15:50:59.845Z,11.50
2023-02-22T15:53:31.284Z,11.30
2023-02-22T15:56:01.733Z,11.10
2023-02-22T15:58:30.036Z,10.90
2023-02-22T16:01:03.082Z,10.80
2023-02-22T16:03:45.046Z,10.60
2023-02-22T16:06:24.700Z,10.60
2023-02-22T16:08:55.487Z,10.50
2023-02-22T16:11:43.232Z,10.30
2023-02-22T16:14:42.582Z,10.20
2023-02-22T16:17:49.375Z,10.00
2023-02-22T16:20:22.496Z,9.90
2023-02-22T16:22:50.300Z,9.80
2023-02-22T16:25:21.650Z,9.70
2023-02-22T16:27:55.950Z,9.70
2023-02-22T16:30:34.824Z,9.60
2023-02-22T16:33:05.614Z,9.50
2023-02-22T16:35:35.547Z,9.30
2023-02-22T16:38:05.358Z,9.30
2023-02-22T16:40:38.672Z,9.10
2023-02-22T16:43:08.346Z,8.90
2023-02-22T16:45:36.120Z,8.80
2023-02-22T16:48:25.643Z,8.70
2023-02-22T16:50:55.135Z,8.70
2023-02-22T16:53:25.023Z,8.50
2023-02-22T16:55:57.942Z,8.40
2023-02-22T16:58:28.681Z,8.40
2023-02-22T17:00:57.449Z,8.30
2023-02-22T17:03:25.885Z,8.20
2023-02-22T17:05:53.811Z,8.30
2023-02-22T17:08:20.936Z,8.20
2023-02-22T17:10:51.500Z,8.20
2023-02-22T17:13:26.757Z,8.20
2023-02-22T17:15:57.551Z,8.20
2023-02-22T17:18:28.534Z,8.10
2023-02-22T17:20:55.770Z,8.00
2023-02-22T17:23:24.258Z,7.90
2023-02-22T17:25:59.654Z,7.90
2023-02-22T17:28:27.013Z,7.90
2023-02-22T17:30:55.529Z,7.90
2023-02-22T17:33:27.457Z,7.90
2023-02-22T17:35:57.947Z,7.90
2023-02-22T17:38:26.997Z,7.90
2023-02-22T17:40:54.933Z,7.90
2023-02-22T17:43:22.607Z,7.90
2023-02-22T17:45:49.874Z,7.90
2023-02-22T17:48:17.948Z,7.80
2023-02-22T17:50:46.586Z,7.80
2023-02-22T17:53:14.142Z,7.80
2023-02-22T17:55:42.631Z,7.70
2023-02-22T17:58:17.454Z,7.70
2023-02-22T18:00:50.042Z,7.70
2023-02-22T18:03:25.451Z,7.60
2023-02-22T18:05:56.328Z,7.60
2023-02-22T18:08:24.480Z,7.60
2023-02-22T18:10:56.268Z,7.50
2023-02-22T18:13:26.036Z,7.50
2023-02-22T18:15:53.785Z,7.50
2023-02-22T18:18:22.178Z,7.40
2023-02-22T18:20:51.484Z,7.40
2023-02-22T18:23:22.320Z,7.40
2023-02-22T18:26:07.737Z,7.40
2023-02-22T18:28:36.790Z,7.40
2023-02-22T18:31:15.559Z,7.40
2023-02-22T18:33:48.306Z,7.30
2023-02-22T18:36:25.346Z,7.30
2023-02-22T18:38:53.998Z,7.20
2023-02-22T18:41:25.560Z,7.20
2023-02-22T18:43:55.227Z,7.20
2023-02-22T18:46:24.403Z,7.20
2023-02-22T18:48:55.978Z,7.20
2023-02-22T18:51:23.971Z,7.10
2023-02-22T18:53:54.924Z,7.10
2023-02-22T18:56:22.647Z,7.00
2023-02-22T18:59:01.036Z,7.00
2023-02-22T19:01:29.360Z,6.90
2023-02-22T19:03:56.574Z,7.00
2023-02-22T19:06:23.876Z,6.90
2023-02-22T19:08:51.157Z,6.90
2023-02-22T19:11:21.951Z,6.90
2023-02-22T19:13:51.376Z,6.90
2023-02-22T19:16:21.724Z,6.80
2023-02-22T19:18:52.348Z,6.80
2023-02-22T19:21:20.393Z,6.70
2023-02-22T19:23:48.586Z,6.80
2023-02-22T19:26:19.282Z,6.80
2023-02-22T19:28:47.382Z,6.80
2023-02-22T19:31:20.068Z,6.80
2023-02-22T19:33:51.227Z,6.90
2023-02-22T19:36:19.528Z,6.90
2023-02-22T19:38:46.618Z,6.90
2023-02-22T19:41:19.540Z,6.90
2023-02-22T19:43:50.952Z,6.90
2023-02-22T19:46:18.972Z,6.90
2023-02-22T19:48:45.931Z,6.90
2023-02-22T19:51:14.560Z,6.90
2023-02-22T19:53:43.021Z,6.90
2023-02-22T19:56:17.941Z,6.90
2023-02-22T19:58:46.497Z,6.90
2023-02-22T20:01:36.830Z,7.00
2023-02-22T20:04:06.912Z,7.10
2023-02-22T20:06:45.370Z,7.20
2023-02-22T20:09:18.138Z,7.30
2023-02-22T20:11:46.357Z,7.30
2023-02-22T20:14:19.042Z,7.30
2023-02-22T20:16:46.410Z,7.20
2023-02-22T20:19:13.724Z,7.20
2023-02-22T20:21:40.761Z,7.10
2023-02-22T20:24:12.002Z,7.10
2023-02-22T20:26:40.134Z,7.20
2023-02-22T20:29:09.196Z,7.10
2023-02-22T20:31:37.955Z,7.20
2023-02-22T20:34:09.370Z,7.20
2023-02-22T20:36:41.432Z,7.20
2023-02-22T20:39:13.686Z,7.20
2023-02-22T20:41:43.187Z,7.10
2023-02-22T20:44:13.519Z,7.10
2023-02-22T20:46:40.722Z,7.10
2023-02-22T20:49:11.141Z,7.10
2023-02-22T20:51:42.056Z,7.10
2023-02-22T20:54:11.682Z,7.10
2023-02-22T20:56:41.936Z,7.00
2023-02-22T20:59:12.651Z,6.90
2023-02-22T21:01:40.012Z,6.90
2023-02-22T21:04:08.671Z,6.80
2023-02-22T21:06:37.283Z,6.80
2023-02-22T21:09:09.420Z,6.80
2023-02-22T21:11:36.613Z,6.70
2023-02-22T21:14:04.077Z,6.60
2023-02-22T21:16:34.262Z,6.60
2023-02-22T21:19:04.213Z,6.60
2023-02-22T21:21:32.006Z,6.60
2023-02-22T21:24:02.696Z,6.70
2023-02-22T21:26:34.659Z,6.70
2023-02-22T21:29:04.872Z,6.70
2023-02-22T21:31:33.786Z,6.80
2023-02-22T21:34:01.910Z,6.70
2023-02-22T21:36:29.885Z,6.70
2023-02-22T21:38:59.970Z,6.80
2023-02-22T21:41:31.323Z,6.80
2023-02-22T21:43:59.318Z,6.90
2023-02-22T21:46:29.042Z,7.00
2023-02-22T21:48:58.602Z,7.10
2023-02-22T21:51:31.602Z,7.10
2023-02-22T21:54:04.048Z,7.10
2023-02-22T21:56:34.831Z,7.10
2023-02-22T21:59:03.721Z,7.10
2023-02-22T22:01:43.193Z,7.20
2023-02-22T22:04:10.008Z,7.20
2023-02-22T22:06:36.978Z,7.20
2023-02-22T22:09:07.686Z,7.20
2023-02-22T22:11:35.672Z,7.20
2023-02-22T22:14:03.650Z,7.20
2023-02-22T22:16:31.003Z,7.20
2023-02-22T22:18:57.946Z,7.20
2023-02-22T22:21:25.582Z,7.30
2023-02-22T22:23:57.402Z,7.20
2023-02-22T22:26:25.706Z,7.20
2023-02-22T22:28:56.000Z,7.10
2023-02-22T22:31:25.865Z,7.10
2023-02-22T22:33:53.313Z,7.10
2023-02-22T22:36:21.489Z,7.00
2023-02-22T22:38:49.235Z,7.00
2023-02-22T22:41:19.649Z,7.00
2023-02-22T22:43:46.781Z,7.00
2023-02-22T22:46:16.636Z,7.00
2023-02-22T22:48:46.872Z,7.00
2023-02-22T22:51:22.122Z,6.90
2023-02-22T22:53:50.208Z,6.90
2023-02-22T22:56:21.023Z,6.90
2023-02-22T22:58:50.452Z,6.90
2023-02-22T23:01:20.173Z,6.90
2023-02-22T23:03:54.900Z,6.90
2023-02-22T23:06:37.704Z,6.90
2023-02-22T23:09:12.634Z,6.90
2023-02-22T23:12:09.151Z,6.90
2023-02-22T23:14:45.930Z,6.80
2023-02-22T23:17:31.462Z,6.80
2023-02-22T23:19:58.559Z,6.80
2023-02-22T23:22:25.930Z,6.70
2023-02-22T23:24:54.487Z,6.70
2023-02-22T23:27:23.312Z,6.70
2023-02-22T23:29:50.154Z,6.70
2023-02-22T23:32:17.376Z,6.70
2023-02-22T23:34:44.320Z,6.70
2023-02-22T23:37:13.650Z,6.70
2023-02-22T23:39:40.467Z,6.70
2023-02-22T23:42:10.421Z,6.70
2023-02-22T23:44:37.342Z,6.70
2023-02-22T23:47:04.711Z,6.60
2023-02-22T23:49:38.085Z,6.70
2023-02-22T23:52:06.534Z,6.60
2023-02-22T23:54:36.496Z,6.60
2023-02-22T23:57:05.339Z,6.60
2023-02-22T23:59:33.513Z,6.60
